Time;durP1;ratioP1;P1;durP2;ratioP2;P2;SDS_P1;SDS_P2;PMS_P1;PMS_P2;Temp;Humidity;BMP_temperature;BMP_pressure;BME280_temperature;BME280_humidity;BME280_pressure;Samples;Min_cycle;Max_cycle;Signal;HPM_P1;HPM_P2
2023/02/03 00:01:43;;;;;;;7.47;1.60;;;9.10;99.90;;;;;;5069819;28;20158;-62
2023/02/03 00:04:09;;;;;;;7.50;1.95;;;9.00;99.90;;;;;;5073795;28;20047;-63
2023/02/03 00:06:34;;;;;;;5.47;1.42;;;8.90;99.90;;;;;;5074537;28;20052;-63
2023/02/03 00:09:00;;;;;;;9.02;1.60;;;8.90;99.90;;;;;;5074451;28;20040;-63
2023/02/03 00:11:29;;;;;;;10.98;2.00;;;9.00;99.90;;;;;;5074343;28;20479;-62
2023/02/03 00:13:55;;;;;;;5.38;1.45;;;9.00;99.90;;;;;;5074426;28;20033;-63
2023/02/03 00:16:20;;;;;;;9.05;2.05;;;9.00;99.90;;;;;;5074540;28;20093;-63
2023/02/03 00:18:46;;;;;;;8.73;2.05;;;9.00;99.90;;;;;;5074330;28;20028;-62
2023/02/03 00:21:13;;;;;;;8.00;1.63;;;8.90;99.90;;;;;;5074363;28;20036;-62
2023/02/03 00:23:40;;;;;;;7.20;1.42;;;9.00;99.90;;;;;;5074149;28;20493;-62
2023/02/03 00:26:07;;;;;;;8.52;1.63;;;9.00;99.90;;;;;;5074468;28;20032;-62
2023/02/03 00:28:33;;;;;;;8.07;1.65;;;9.00;99.90;;;;;;5064291;28;20044;-63
2023/02/03 00:30:58;;;;;;;10.70;2.17;;;9.00;99.90;;;;;;5054081;28;20045;-62
2023/02/03 00:33:24;;;;;;;8.98;1.83;;;9.00;99.90;;;;;;5054293;28;20386;-63
2023/02/03 00:35:50;;;;;;;13.10;2.42;;;9.00;99.90;;;;;;5054138;28;20439;-62
2023/02/03 00:38:15;;;;;;;11.25;2.10;;;9.00;99.90;;;;;;5053851;28;20442;-62
2023/02/03 00:40:41;;;;;;;6.97;1.95;;;9.00;99.90;;;;;;5073708;28;20380;-63
2023/02/03 00:43:06;;;;;;;6.40;2.10;;;9.00;99.90;;;;;;5073779;28;20094;-63
2023/02/03 00:45:32;;;;;;;6.35;1.52;;;9.00;99.90;;;;;;5073962;28;20082;-62
2023/02/03 00:47:57;;;;;;;10.90;1.80;;;9.10;99.90;;;;;;5073814;28;20055;-63
2023/02/03 00:50:23;;;;;;;9.85;1.80;;;9.00;99.90;;;;;;5073822;28;20068;-63
2023/02/03 00:52:49;;;;;;;5.60;1.88;;;9.10;99.90;;;;;;5073643;28;20843;-62
2023/02/03 00:55:14;;;;;;;10.48;1.92;;;9.00;99.90;;;;;;5074178;28;20080;-62
2023/02/03 00:57:40;;;;;;;17.20;2.53;;;9.10;99.90;;;;;;5073489;28;20040;-63
2023/02/03 01:00:06;;;;;;;7.00;1.92;;;9.00;99.90;;;;;;5073825;28;20063;-63
2023/02/03 01:02:32;;;;;;;7.00;1.90;;;9.10;99.90;;;;;;5073742;28;20071;-63
2023/02/03 01:04:58;;;;;;;10.13;2.13;;;9.00;99.90;;;;;;5073385;28;20478;-63
2023/02/03 01:07:23;;;;;;;9.32;2.17;;;9.10;99.90;;;;;;5073498;28;20040;-62
2023/02/03 01:09:49;;;;;;;9.93;2.58;;;9.10;99.90;;;;;;5073318;28;20072;-63
2023/02/03 01:12:14;;;;;;;11.13;1.70;;;9.00;99.90;;;;;;5073856;28;20202;-62
2023/02/03 01:14:40;;;;;;;6.75;1.52;;;9.00;99.90;;;;;;5072792;28;20550;-62
2023/02/03 01:17:06;;;;;;;9.13;1.38;;;9.00;99.90;;;;;;5073317;28;20028;-62
2023/02/03 01:19:31;;;;;;;8.27;1.38;;;9.10;99.90;;;;;;5073263;28;20040;-63
2023/02/03 01:21:57;;;;;;;11.65;2.65;;;9.10;99.90;;;;;;5073051;28;20072;-63
2023/02/03 01:24:23;;;;;;;6.43;2.00;;;9.00;99.90;;;;;;5073558;28;20044;-62
2023/02/03 01:26:48;;;;;;;9.48;2.45;;;9.10;99.90;;;;;;5073242;28;20036;-63
2023/02/03 01:29:14;;;;;;;6.80;1.60;;;9.00;99.90;;;;;;5057685;28;20173;-62
2023/02/03 01:31:41;;;;;;;7.60;1.80;;;9.00;99.90;;;;;;5053385;28;20075;-63
2023/02/03 01:34:15;;;;;;;10.32;2.28;;;9.00;99.90;;;;;;5053345;28;20041;-63
2023/02/03 01:36:41;;;;;;;15.27;2.28;;;9.10;99.90;;;;;;5039830;28;20029;-62
2023/02/03 01:39:06;;;;;;;9.90;1.85;;;9.00;99.90;;;;;;5067128;28;20044;-63
2023/02/03 01:41:34;;;;;;;11.50;2.55;;;8.90;99.90;;;;;;5072920;28;20036;-62
2023/02/03 01:44:01;;;;;;;11.40;2.75;;;9.10;99.90;;;;;;5072971;28;20137;-63
2023/02/03 01:46:34;;;;;;;12.32;3.03;;;9.00;99.90;;;;;;5072377;28;20045;-60
2023/02/03 01:49:09;;;;;;;13.90;2.50;;;9.00;99.90;;;;;;5072582;28;20041;-60
2023/02/03 01:51:37;;;;;;;11.82;2.53;;;9.00;99.90;;;;;;5072442;28;20039;-60
2023/02/03 01:54:05;;;;;;;9.05;2.38;;;9.10;99.90;;;;;;5072688;28;20111;-60
2023/02/03 01:56:36;;;;;;;12.57;1.92;;;9.10;99.90;;;;;;5072918;28;20055;-60
2023/02/03 01:59:02;;;;;;;7.50;1.88;;;9.00;99.90;;;;;;5072478;28;20040;-60
2023/02/03 02:01:30;;;;;;;11.07;2.50;;;9.00;99.90;;;;;;5072371;28;20513;-60
2023/02/03 02:03:59;;;;;;;9.57;1.92;;;9.00;99.90;;;;;;5072301;28;20041;-60
2023/02/03 02:06:24;;;;;;;;;;;9.00;99.90;;;;;;5064158;28;20116;-59
2023/02/03 02:08:52;;;;;;;10.50;2.00;;;9.00;99.90;;;;;;5072220;28;19998;-60
2023/02/03 02:11:21;;;;;;;11.73;2.42;;;9.00;99.90;;;;;;5071188;28;20494;-60
2023/02/03 02:13:50;;;;;;;8.95;2.60;;;9.10;99.90;;;;;;5070802;28;20072;-61
2023/02/03 02:16:24;;;;;;;10.93;2.03;;;9.10;99.90;;;;;;5071955;28;20557;-60
2023/02/03 02:19:02;;;;;;;11.60;2.25;;;9.00;99.90;;;;;;5072108;28;20524;-60
2023/02/03 02:21:40;;;;;;;16.15;2.55;;;9.00;99.90;;;;;;5072040;28;20032;-60
2023/02/03 02:24:06;;;;;;;10.43;2.28;;;9.20;99.90;;;;;;5071852;28;20101;-60
2023/02/03 02:26:40;;;;;;;11.65;2.45;;;9.00;99.90;;;;;;5071014;28;20028;-60
2023/02/03 02:29:41;;;;;;;15.98;2.58;;;9.10;99.90;;;;;;5071959;28;20044;-60
2023/02/03 02:32:16;;;;;;;15.48;2.55;;;9.00;99.90;;;;;;5019106;28;20447;-62
2023/02/03 02:35:02;;;;;;;14.98;2.92;;;9.00;99.90;;;;;;5029649;28;20466;-63
2023/02/03 02:38:00;;;;;;;8.85;2.28;;;9.00;99.90;;;;;;5013709;28;20475;-62
2023/02/03 02:40:38;;;;;;;9.93;2.15;;;9.00;99.90;;;;;;5022762;28;20046;-63
2023/02/03 02:43:07;;;;;;;12.73;2.70;;;9.00;99.90;;;;;;5010707;28;20097;-62
2023/02/03 02:45:48;;;;;;;11.30;2.20;;;9.00;99.90;;;;;;5029705;28;20098;-63
2023/02/03 02:48:36;;;;;;;11.10;2.70;;;9.00;99.90;;;;;;5029359;28;20111;-62
2023/02/03 02:51:04;;;;;;;11.70;3.35;;;9.00;99.90;;;;;;5029537;28;20124;-62
2023/02/03 02:53:36;;;;;;;12.85;2.90;;;9.00;99.90;;;;;;5029220;28;20136;-63
2023/02/03 02:56:06;;;;;;;13.73;2.15;;;8.90;99.90;;;;;;5029807;28;20037;-63
2023/02/03 02:58:34;;;;;;;9.65;2.60;;;8.90;99.90;;;;;;5029334;28;20044;-63
2023/02/03 03:01:01;;;;;;;11.43;2.20;;;9.00;99.90;;;;;;5029507;28;20053;-62
2023/02/03 03:03:27;;;;;;;12.38;2.63;;;8.90;99.90;;;;;;5012553;28;20499;-63
2023/02/03 03:05:58;;;;;;;18.52;2.95;;;8.90;99.90;;;;;;5029452;28;20076;-63
2023/02/03 03:08:32;;;;;;;10.35;2.35;;;8.80;99.90;;;;;;5057362;28;20128;-63
2023/02/03 03:10:59;;;;;;;11.25;2.78;;;9.00;99.90;;;;;;5071616;28;20083;-62
2023/02/03 03:13:29;;;;;;;9.15;2.10;;;8.90;99.90;;;;;;5071443;28;20047;-63
2023/02/03 03:15:58;;;;;;;9.93;2.53;;;8.90;99.90;;;;;;5071258;28;20064;-63
2023/02/03 03:18:32;;;;;;;13.35;2.20;;;9.00;99.90;;;;;;5071536;28;20090;-63
2023/02/03 03:21:04;;;;;;;11.98;2.40;;;8.90;99.90;;;;;;5071301;28;20116;-63
2023/02/03 03:23:38;;;;;;;13.45;2.70;;;8.90;99.90;;;;;;5071291;28;20514;-62
2023/02/03 03:26:19;;;;;;;10.95;2.80;;;8.90;99.90;;;;;;5071362;28;20109;-62
2023/02/03 03:28:48;;;;;;;12.55;2.50;;;8.80;99.90;;;;;;5071349;28;20090;-63
2023/02/03 03:31:17;;;;;;;9.75;2.20;;;8.80;99.90;;;;;;5070948;28;20475;-63
2023/02/03 03:33:43;;;;;;;9.05;2.17;;;8.80;99.90;;;;;;5071398;28;20047;-62
2023/02/03 03:36:31;;;;;;;14.32;2.63;;;8.80;99.90;;;;;;5071128;28;20033;-63
2023/02/03 03:39:15;;;;;;;12.13;2.92;;;8.80;99.90;;;;;;5072475;28;20376;-63
2023/02/03 03:42:05;;;;;;;13.10;2.35;;;8.90;99.90;;;;;;5075249;28;20040;-63
2023/02/03 03:44:43;;;;;;;13.20;2.83;;;8.80;99.90;;;;;;5075169;28;20098;-62
2023/02/03 03:47:15;;;;;;;14.05;2.33;;;8.80;99.90;;;;;;5073748;28;20278;-63
2023/02/03 03:49:44;;;;;;;14.18;2.60;;;8.90;99.90;;;;;;5074789;28;20487;-63
2023/02/03 03:52:13;;;;;;;10.80;2.13;;;9.00;99.90;;;;;;5074872;28;20039;-63
2023/02/03 03:54:41;;;;;;;14.27;2.83;;;9.00;99.90;;;;;;5074627;28;20051;-63
2023/02/03 03:57:07;;;;;;;14.73;3.17;;;8.90;99.90;;;;;;5075001;28;20059;-63
2023/02/03 03:59:38;;;;;;;10.50;2.00;;;8.90;99.90;;;;;;5073143;28;20049;-63
2023/02/03 04:02:03;;;;;;;19.08;2.67;;;8.90;99.90;;;;;;5074600;28;20044;-62
2023/02/03 04:04:32;;;;;;;14.98;3.15;;;8.90;99.90;;;;;;5074686;28;20040;-63
2023/02/03 04:06:58;;;;;;;10.85;2.38;;;9.00;99.90;;;;;;5074733;28;20041;-63
2023/02/03 04:09:23;;;;;;;13.18;2.53;;;9.10;99.90;;;;;;5074705;28;20075;-63
2023/02/03 04:12:01;;;;;;;28.50;3.85;;;9.00;99.90;;;;;;5074666;28;20036;-62
2023/02/03 04:14:32;;;;;;;11.02;1.88;;;9.00;99.90;;;;;;5074473;28;20032;-63
2023/02/03 04:16:58;;;;;;;16.17;3.03;;;9.00;99.90;;;;;;5061755;28;20045;-62
2023/02/03 04:19:24;;;;;;;14.30;2.40;;;9.00;99.90;;;;;;5071704;28;20505;-62
2023/02/03 04:21:50;;;;;;;15.18;2.75;;;9.00;99.90;;;;;;5074616;28;20098;-62
2023/02/03 04:24:15;;;;;;;10.25;2.35;;;9.00;99.90;;;;;;5074378;28;20072;-63
2023/02/03 04:26:41;;;;;;;13.90;2.30;;;9.10;99.90;;;;;;5073088;28;20123;-62
2023/02/03 04:29:07;;;;;;;8.57;2.58;;;9.10;99.90;;;;;;5074475;28;20048;-62
2023/02/03 04:31:32;;;;;;;10.38;2.60;;;9.00;99.90;;;;;;5074156;28;20036;-62
2023/02/03 04:33:58;;;;;;;11.70;2.35;;;9.10;99.90;;;;;;5074379;28;20419;-63
2023/02/03 04:36:24;;;;;;;14.48;2.75;;;9.00;99.90;;;;;;5074175;28;20471;-62
2023/02/03 04:38:50;;;;;;;11.07;2.53;;;9.00;99.90;;;;;;5074235;28;20063;-62
2023/02/03 04:41:16;;;;;;;12.32;2.78;;;9.00;99.90;;;;;;5074048;28;20047;-63
2023/02/03 04:43:41;;;;;;;11.85;2.60;;;8.90;99.90;;;;;;5073831;28;20040;-62
2023/02/03 04:46:07;;;;;;;16.65;2.40;;;9.10;99.90;;;;;;5073996;28;20048;-63
2023/02/03 04:48:33;;;;;;;18.50;2.78;;;9.10;99.90;;;;;;5074122;28;20059;-62
2023/02/03 04:51:03;;;;;;;12.93;2.67;;;9.10;99.90;;;;;;5073039;28;20045;-63
2023/02/03 04:53:30;;;;;;;10.20;2.53;;;9.10;99.90;;;;;;5073714;28;20084;-63
2023/02/03 04:55:55;;;;;;;12.40;2.53;;;9.20;99.90;;;;;;5073725;28;20117;-62
2023/02/03 04:58:21;;;;;;;11.13;2.35;;;9.10;99.90;;;;;;5073713;28;20167;-62
2023/02/03 05:00:47;;;;;;;13.25;3.17;;;9.10;99.90;;;;;;5073516;28;20059;-63
2023/02/03 05:03:13;;;;;;;12.25;2.75;;;9.10;99.90;;;;;;5072414;28;20044;-62
2023/02/03 05:05:38;;;;;;;14.40;3.42;;;9.20;99.90;;;;;;5073514;28;20508;-63
2023/02/03 05:08:04;;;;;;;13.45;2.20;;;9.10;99.90;;;;;;5073920;28;20037;-63
2023/02/03 05:10:30;;;;;;;9.90;1.80;;;9.10;99.90;;;;;;5073338;28;20052;-62
2023/02/03 05:12:55;;;;;;;16.27;2.42;;;9.20;99.90;;;;;;5073441;28;20040;-62
2023/02/03 05:15:21;;;;;;;8.48;2.13;;;9.10;99.90;;;;;;5073444;28;20119;-63
2023/02/03 05:17:47;;;;;;;15.80;2.50;;;9.20;99.90;;;;;;5073638;28;20045;-63
2023/02/03 05:20:12;;;;;;;11.27;2.40;;;9.10;99.90;;;;;;5072444;28;20048;-63
2023/02/03 05:22:38;;;;;;;11.20;2.50;;;9.00;99.90;;;;;;5073354;28;20043;-63
2023/02/03 05:25:04;;;;;;;14.70;3.17;;;9.10;99.90;;;;;;5072352;28;20044;-62
2023/02/03 05:27:30;;;;;;;13.07;3.45;;;9.10;99.90;;;;;;5071639;28;20040;-63
2023/02/03 05:29:55;;;;;;;11.80;2.17;;;9.10;99.90;;;;;;5060380;28;20036;-63
2023/02/03 05:32:21;;;;;;;18.52;2.85;;;9.10;99.90;;;;;;5073151;28;20052;-63
2023/02/03 05:34:47;;;;;;;13.90;2.97;;;9.00;99.90;;;;;;5062179;28;20036;-60
2023/02/03 05:37:12;;;;;;;12.38;3.28;;;9.00;99.90;;;;;;5069823;28;20090;-60
2023/02/03 05:39:38;;;;;;;16.10;3.05;;;9.00;99.90;;;;;;5073100;28;20033;-61
2023/02/03 05:42:03;;;;;;;11.73;2.78;;;9.00;99.90;;;;;;5056461;28;20083;-60
2023/02/03 05:44:30;;;;;;;11.98;2.22;;;8.90;99.90;;;;;;5063859;28;20086;-60
2023/02/03 05:46:57;;;;;;;10.00;3.42;;;9.00;99.90;;;;;;5067710;28;20106;-60
2023/02/03 05:49:23;;;;;;;15.93;3.65;;;9.10;99.90;;;;;;5062219;28;20041;-61
2023/02/03 05:51:53;;;;;;;5.82;1.92;;;9.00;99.90;;;;;;5072546;28;20380;-60
2023/02/03 05:54:19;;;;;;;11.20;2.47;;;9.00;99.90;;;;;;5071352;28;20095;-60
2023/02/03 05:56:45;;;;;;;14.38;2.80;;;9.00;99.90;;;;;;5072490;28;20072;-59
2023/02/03 05:59:11;;;;;;;15.63;3.40;;;8.90;99.90;;;;;;5072595;28;20474;-60
2023/02/03 06:01:37;;;;;;;13.57;3.17;;;9.00;99.90;;;;;;5060440;28;20376;-60
2023/02/03 06:04:03;;;;;;;20.55;2.80;;;9.00;99.90;;;;;;5061490;28;20101;-60
2023/02/03 06:06:33;;;;;;;13.15;2.38;;;9.00;99.90;;;;;;5071199;28;20037;-60
2023/02/03 06:09:04;;;;;;;20.05;3.15;;;9.00;99.90;;;;;;5072228;28;20040;-60
2023/02/03 06:11:30;;;;;;;16.42;3.75;;;9.00;99.90;;;;;;5072242;28;20045;-60
2023/02/03 06:13:57;;;;;;;15.82;2.88;;;9.00;99.90;;;;;;5072328;28;20137;-60
2023/02/03 06:16:24;;;;;;;18.98;3.45;;;9.00;99.90;;;;;;5072199;28;20479;-61
2023/02/03 06:18:54;;;;;;;12.52;2.47;;;9.00;99.90;;;;;;5066240;28;20036;-60
2023/02/03 06:21:21;;;;;;;13.43;2.88;;;9.00;99.90;;;;;;5072314;28;20170;-60
2023/02/03 06:23:47;;;;;;;13.38;3.47;;;9.00;99.90;;;;;;5072113;28;20048;-60
2023/02/03 06:26:13;;;;;;;12.55;2.85;;;9.00;99.90;;;;;;5071755;28;20059;-60
2023/02/03 06:28:38;;;;;;;15.02;3.03;;;9.00;99.90;;;;;;5072272;28;20471;-61
2023/02/03 06:31:04;;;;;;;26.38;3.85;;;9.10;99.90;;;;;;5071783;28;20308;-60
2023/02/03 06:33:31;;;;;;;17.48;3.30;;;9.00;99.90;;;;;;5071939;28;20106;-62
2023/02/03 06:35:57;;;;;;;16.42;3.20;;;9.10;99.90;;;;;;5071795;28;20032;-62
2023/02/03 06:38:23;;;;;;;21.15;3.17;;;9.10;99.90;;;;;;5069788;28;20078;-62
2023/02/03 06:40:49;;;;;;;16.27;3.47;;;9.10;99.90;;;;;;5068555;28;20044;-63
2023/02/03 06:43:15;;;;;;;23.73;3.30;;;9.10;99.90;;;;;;5071849;28;20123;-61
2023/02/03 06:45:43;;;;;;;15.35;3.13;;;9.10;99.90;;;;;;5071571;28;20041;-61
2023/02/03 06:48:09;;;;;;;15.07;3.88;;;9.20;99.90;;;;;;5059530;28;20069;-60
2023/02/03 06:50:34;;;;;;;19.48;4.50;;;9.10;99.90;;;;;;5052786;28;20064;-61
2023/02/03 06:53:00;;;;;;;18.23;3.63;;;9.10;99.90;;;;;;5057842;28;20137;-60
2023/02/03 06:55:26;;;;;;;19.27;3.55;;;9.10;99.90;;;;;;5071423;28;20443;-61
2023/02/03 06:57:51;;;;;;;16.17;3.88;;;9.10;99.90;;;;;;5071979;28;20457;-60
2023/02/03 07:00:18;;;;;;;21.75;3.65;;;9.10;99.90;;;;;;5071691;28;20040;-60
2023/02/03 07:02:44;;;;;;;24.30;3.58;;;9.10;99.90;;;;;;5071720;28;20042;-60
2023/02/03 07:05:09;;;;;;;22.25;3.35;;;9.10;99.90;;;;;;5070591;28;20451;-61
2023/02/03 07:07:38;;;;;;;20.33;4.00;;;9.20;99.90;;;;;;5071905;28;20044;-61
2023/02/03 07:10:04;;;;;;;16.97;3.70;;;9.20;99.90;;;;;;5071352;28;20040;-60
2023/02/03 07:12:30;;;;;;;16.30;3.90;;;9.20;99.90;;;;;;5071036;28;20277;-61
2023/02/03 07:14:56;;;;;;;20.63;3.35;;;9.20;99.90;;;;;;5071380;28;20043;-60
2023/02/03 07:17:21;;;;;;;21.90;4.50;;;9.20;99.90;;;;;;5068034;28;20393;-61
2023/02/03 07:19:47;;;;;;;18.33;3.65;;;9.30;99.90;;;;;;5051486;28;20032;-60
2023/02/03 07:22:13;;;;;;;18.70;4.07;;;9.30;99.90;;;;;;5065168;28;20039;-60
2023/02/03 07:24:38;;;;;;;16.60;4.18;;;9.30;99.90;;;;;;5071855;28;20051;-60
2023/02/03 07:27:04;;;;;;;18.27;4.03;;;9.30;99.90;;;;;;5071539;28;20036;-58
2023/02/03 07:29:30;;;;;;;24.55;4.07;;;9.30;99.90;;;;;;5071239;28;20044;-57
2023/02/03 07:31:55;;;;;;;25.83;4.50;;;9.30;99.90;;;;;;5059788;28;20486;-57
2023/02/03 07:34:21;;;;;;;19.77;4.45;;;9.20;99.90;;;;;;5068973;28;20522;-58
2023/02/03 07:36:47;;;;;;;22.40;3.90;;;9.00;99.90;;;;;;5068977;28;20150;-58
2023/02/03 07:39:13;;;;;;;30.00;4.53;;;8.90;99.90;;;;;;5059020;28;20482;-58
2023/02/03 07:41:39;;;;;;;25.08;4.15;;;8.90;99.90;;;;;;5050659;28;20120;-58
2023/02/03 07:44:04;;;;;;;28.02;4.88;;;8.90;99.90;;;;;;5071353;28;20238;-57
2023/02/03 07:46:30;;;;;;;21.77;4.07;;;8.90;99.90;;;;;;5071292;28;20036;-57
2023/02/03 07:48:56;;;;;;;18.15;4.43;;;8.90;99.90;;;;;;5071151;28;20072;-58
2023/02/03 07:51:21;;;;;;;21.77;4.38;;;8.80;99.90;;;;;;5069943;28;20048;-57
2023/02/03 07:53:47;;;;;;;28.98;5.35;;;8.90;99.90;;;;;;5071315;28;20501;-57
2023/02/03 07:56:13;;;;;;;30.38;5.20;;;8.80;99.90;;;;;;5070951;28;20057;-58
2023/02/03 07:58:38;;;;;;;24.60;5.15;;;8.90;99.90;;;;;;5069819;28;20051;-58
2023/02/03 08:01:14;;;;;;;28.48;5.90;;;8.90;99.90;;;;;;5070081;28;20044;-57
2023/02/03 08:03:40;;;;;;;27.95;5.07;;;8.90;99.90;;;;;;5071357;28;20816;-57
2023/02/03 08:06:06;;;;;;;20.92;4.93;;;8.90;99.90;;;;;;5071091;28;20044;-57
2023/02/03 08:08:32;;;;;;;30.65;5.68;;;8.90;99.90;;;;;;5071032;28;20040;-57
2023/02/03 08:10:58;;;;;;;20.17;4.40;;;8.90;99.90;;;;;;5070697;28;20471;-57
2023/02/03 08:13:23;;;;;;;24.67;5.63;;;9.00;99.90;;;;;;5071164;28;20036;-58
2023/02/03 08:15:49;;;;;;;27.63;5.25;;;9.00;99.90;;;;;;5070936;28;20036;-58
2023/02/03 08:18:15;;;;;;;19.67;5.38;;;9.00;99.90;;;;;;5070862;28;20068;-58
2023/02/03 08:20:40;;;;;;;18.55;4.85;;;9.00;99.90;;;;;;5070633;28;20076;-57
2023/02/03 08:23:06;;;;;;;29.25;5.47;;;9.10;99.90;;;;;;5070025;28;20135;-57
2023/02/03 08:25:32;;;;;;;18.13;4.18;;;9.00;99.90;;;;;;5072797;28;20048;-58
2023/02/03 08:27:57;;;;;;;22.48;4.43;;;9.10;99.90;;;;;;5074532;28;20090;-59
2023/02/03 08:30:25;;;;;;;29.50;4.97;;;9.00;99.90;;;;;;5074264;28;20106;-59
2023/02/03 08:32:50;;;;;;;25.77;5.35;;;8.90;99.90;;;;;;5074239;28;20047;-58
2023/02/03 08:35:16;;;;;;;25.77;5.38;;;9.10;99.90;;;;;;5073947;28;20024;-57
2023/02/03 08:37:42;;;;;;;22.58;5.00;;;9.10;99.90;;;;;;5074202;28;20041;-58
2023/02/03 08:40:09;;;;;;;27.95;5.22;;;9.10;99.90;;;;;;5074214;28;20102;-58
2023/02/03 08:42:35;;;;;;;27.60;5.13;;;9.20;99.90;;;;;;5074294;28;20048;-58
2023/02/03 08:45:01;;;;;;;36.15;5.13;;;9.20;99.90;;;;;;5074034;28;20052;-58
2023/02/03 08:47:26;;;;;;;29.48;5.55;;;9.20;99.90;;;;;;5074153;28;20474;-58
2023/02/03 08:49:52;;;;;;;29.15;5.63;;;9.30;99.90;;;;;;5055892;28;20044;-57
2023/02/03 08:52:18;;;;;;;23.67;5.38;;;9.20;99.90;;;;;;5055441;28;20036;-57
2023/02/03 08:54:45;;;;;;;26.92;4.78;;;9.20;99.90;;;;;;5066701;28;20059;-57
2023/02/03 08:57:11;;;;;;;37.53;6.85;;;9.20;99.90;;;;;;5073578;28;20498;-58
2023/02/03 08:59:41;;;;;;;29.52;5.60;;;9.20;99.90;;;;;;5073764;28;20041;-57
2023/02/03 09:02:13;;;;;;;29.65;4.65;;;9.20;99.90;;;;;;5073958;28;20043;-57
2023/02/03 09:04:38;;;;;;;28.27;5.47;;;9.30;99.90;;;;;;5073680;28;20119;-58
2023/02/03 09:07:04;;;;;;;27.05;4.82;;;9.20;99.90;;;;;;5073467;28;20124;-58
2023/02/03 09:09:30;;;;;;;25.92;5.60;;;9.30;99.90;;;;;;5073712;28;20040;-57
2023/02/03 09:12:00;;;;;;;27.85;5.10;;;9.30;99.90;;;;;;5073557;28;20044;-57
2023/02/03 09:14:31;;;;;;;30.10;5.57;;;9.40;99.90;;;;;;5073284;28;20035;-58
2023/02/03 09:16:57;;;;;;;27.30;4.95;;;9.40;99.90;;;;;;5073588;28;20379;-58
2023/02/03 09:19:23;;;;;;;27.65;5.88;;;9.40;99.90;;;;;;5062996;28;20127;-57
2023/02/03 09:21:49;;;;;;;27.77;5.60;;;9.40;99.90;;;;;;5073491;28;20530;-57
2023/02/03 09:24:16;;;;;;;28.58;4.18;;;9.50;99.90;;;;;;5071986;28;20047;-57
2023/02/03 09:26:42;;;;;;;33.75;6.07;;;9.50;99.90;;;;;;5064480;28;20041;-57
2023/02/03 09:29:07;;;;;;;32.40;6.22;;;9.60;99.90;;;;;;5067864;28;20043;-57
2023/02/03 09:31:33;;;;;;;31.40;5.78;;;9.60;99.90;;;;;;5073110;28;20033;-57
2023/02/03 09:33:59;;;;;;;40.50;5.95;;;9.60;99.90;;;;;;5073401;28;20042;-58
2023/02/03 09:36:25;;;;;;;30.13;5.40;;;9.60;99.90;;;;;;5073065;28;20131;-58
2023/02/03 09:38:50;;;;;;;23.33;5.05;;;9.60;99.90;;;;;;5073061;28;20368;-57
2023/02/03 09:41:43;;;;;;;33.17;5.30;;;9.60;99.90;;;;;;5059358;28;20458;-57
2023/02/03 09:44:49;;;;;;;28.75;4.63;;;9.60;99.90;;;;;;5067080;28;20104;-57
2023/02/03 09:47:25;;;;;;;32.83;5.45;;;9.60;99.90;;;;;;5050617;28;20052;-57
2023/02/03 09:49:59;;;;;;;29.58;5.65;;;9.60;99.90;;;;;;5050435;28;20043;-57
2023/02/03 09:52:35;;;;;;;32.00;6.05;;;9.70;99.90;;;;;;5050638;28;20044;-57
2023/02/03 09:55:12;;;;;;;22.83;5.88;;;9.70;99.90;;;;;;5050265;28;20061;-57
2023/02/03 09:57:55;;;;;;;37.28;6.10;;;9.80;99.90;;;;;;5050552;28;20605;-57
2023/02/03 10:00:31;;;;;;;31.98;6.10;;;9.70;99.90;;;;;;5050347;28;20068;-58
2023/02/03 10:03:15;;;;;;;33.70;6.03;;;9.80;99.90;;;;;;5033853;28;20052;-58
2023/02/03 10:05:47;;;;;;;29.05;6.22;;;9.70;99.90;;;;;;5050230;28;20040;-57
2023/02/03 10:08:15;;;;;;;36.10;7.07;;;9.70;99.90;;;;;;5050309;28;20118;-57
2023/02/03 10:11:08;;;;;;;29.55;5.93;;;9.80;99.90;;;;;;5033380;28;20064;-57
2023/02/03 10:13:58;;;;;;;37.40;6.85;;;9.80;99.90;;;;;;5050174;28;20546;-57
2023/02/03 10:17:00;;;;;;;29.35;5.68;;;9.80;99.90;;;;;;5050069;28;20037;-58
2023/02/03 10:19:45;;;;;;;34.75;5.95;;;9.80;99.90;;;;;;5049879;28;20438;-57
2023/02/03 10:22:17;;;;;;;34.28;6.13;;;9.80;99.90;;;;;;5050102;28;20039;-57
2023/02/03 10:24:52;;;;;;;32.63;6.15;;;9.70;99.90;;;;;;5069456;28;20048;-57
2023/02/03 10:27:21;;;;;;;36.35;6.53;;;9.90;99.90;;;;;;5072184;28;20037;-57
2023/02/03 10:30:05;;;;;;;34.90;6.03;;;9.90;99.90;;;;;;5072080;28;20036;-57
2023/02/03 10:32:31;;;;;;;32.97;7.18;;;10.00;99.90;;;;;;5072214;28;20037;-57
2023/02/03 10:34:56;;;;;;;34.78;5.75;;;10.00;99.90;;;;;;5071822;28;20541;-57
2023/02/03 10:37:28;;;;;;;37.75;6.43;;;10.10;99.90;;;;;;5071920;28;20044;-57
2023/02/03 10:39:55;;;;;;;36.28;6.82;;;10.10;99.90;;;;;;5071732;28;20479;-57
2023/02/03 10:42:22;;;;;;;35.03;6.72;;;10.20;99.90;;;;;;5070684;28;20508;-60
2023/02/03 10:44:56;;;;;;;37.67;6.03;;;10.20;99.90;;;;;;5071959;28;20048;-59
2023/02/03 10:47:35;;;;;;;35.67;6.20;;;10.20;99.90;;;;;;5045372;28;20048;-57
2023/02/03 10:50:15;;;;;;;41.37;8.30;;;10.30;99.90;;;;;;5071783;28;20036;-57
2023/02/03 10:52:41;;;;;;;34.20;6.78;;;10.40;99.90;;;;;;5072221;28;20515;-57
2023/02/03 10:55:28;;;;;;;36.42;6.78;;;10.40;99.90;;;;;;5071265;28;20076;-57
2023/02/03 10:57:55;;;;;;;30.40;6.95;;;10.40;99.90;;;;;;5071765;28;20076;-57
2023/02/03 11:00:29;;;;;;;29.50;7.00;;;10.40;99.90;;;;;;5071437;28;20498;-57
2023/02/03 11:03:29;;;;;;;36.83;7.40;;;10.40;99.90;;;;;;5071599;28;20051;-57
2023/02/03 11:06:06;;;;;;;45.25;7.72;;;10.40;99.90;;;;;;5050555;28;20369;-57
2023/02/03 11:08:33;;;;;;;35.88;7.13;;;10.40;99.90;;;;;;5065051;28;20044;-56
2023/02/03 11:11:05;;;;;;;34.50;7.60;;;10.40;99.90;;;;;;5070111;28;20048;-57
2023/02/03 11:13:31;;;;;;;34.03;7.13;;;10.60;99.90;;;;;;5071476;28;20089;-57
2023/02/03 11:16:04;;;;;;;35.90;6.63;;;10.70;99.90;;;;;;5071367;28;20410;-57
2023/02/03 11:18:41;;;;;;;31.02;6.03;;;10.70;99.90;;;;;;5071604;28;20045;-57
2023/02/03 11:21:11;;;;;;;35.10;7.30;;;10.70;99.90;;;;;;5071614;28;20033;-57
2023/02/03 11:24:01;;;;;;;38.40;7.55;;;10.60;99.90;;;;;;5071690;28;20052;-57
2023/02/03 11:26:38;;;;;;;45.10;8.15;;;10.70;99.90;;;;;;5071290;28;20056;-57
2023/02/03 11:29:07;;;;;;;43.97;8.32;;;10.70;99.90;;;;;;5071436;28;20133;-57
2023/02/03 11:31:35;;;;;;;40.93;7.00;;;10.70;99.90;;;;;;5071218;28;20090;-57
2023/02/03 11:34:04;;;;;;;41.03;6.67;;;10.80;99.90;;;;;;5071772;28;20040;-57
2023/02/03 11:36:33;;;;;;;31.73;6.63;;;10.70;99.90;;;;;;5071350;28;20037;-57
2023/02/03 11:39:36;;;;;;;40.10;7.50;;;10.80;99.90;;;;;;5071448;28;20436;-57
2023/02/03 11:42:15;;;;;;;37.10;6.93;;;10.70;99.90;;;;;;5053148;28;20052;-57
2023/02/03 11:44:41;;;;;;;34.15;6.18;;;10.80;99.90;;;;;;5066361;28;20505;-57
2023/02/03 11:47:10;;;;;;;33.50;6.88;;;10.80;99.90;;;;;;5061949;28;20040;-57
2023/02/03 11:49:54;;;;;;;32.45;7.68;;;10.70;99.90;;;;;;5057053;28;20033;-57
2023/02/03 11:52:42;;;;;;;35.40;7.22;;;10.60;99.90;;;;;;5071109;28;20113;-57
2023/02/03 11:55:43;;;;;;;37.85;7.82;;;10.70;99.90;;;;;;5044307;28;20063;-57
2023/02/03 11:58:27;;;;;;;37.57;6.43;;;10.60;99.90;;;;;;5032343;28;20041;-57
2023/02/03 12:01:07;;;;;;;26.83;6.13;;;10.70;99.90;;;;;;5036128;28;20370;-57
2023/02/03 12:03:33;;;;;;;;;;;10.80;99.90;;;;;;5039046;28;20049;-57
2023/02/03 12:06:20;;;;;;;34.38;6.22;;;10.90;99.90;;;;;;5052752;28;19916;-57
2023/02/03 12:08:59;;;;;;;33.58;6.28;;;11.20;99.90;;;;;;5032801;28;20080;-57
2023/02/03 12:11:54;;;;;;;33.15;7.97;;;11.40;99.90;;;;;;5047058;28;20051;-57
2023/02/03 12:14:26;;;;;;;43.83;8.00;;;11.50;99.90;;;;;;5052308;28;20091;-56
2023/02/03 12:17:13;;;;;;;37.10;8.43;;;11.50;99.90;;;;;;5052481;28;20040;-57
2023/02/03 12:19:51;;;;;;;38.17;6.72;;;11.30;99.90;;;;;;5039437;28;20087;-57
2023/02/03 12:22:31;;;;;;;39.97;7.57;;;11.10;99.90;;;;;;5035409;28;20045;-57
2023/02/03 12:25:21;;;;;;;26.95;5.60;;;11.10;99.90;;;;;;5043978;28;20373;-57
2023/02/03 12:28:51;;;;;;;29.10;5.43;;;11.20;99.90;;;;;;5049910;28;20158;-57
2023/02/03 12:31:37;;;;;;;29.40;5.93;;;11.10;99.90;;;;;;4878264;29;20060;-57
2023/02/03 12:34:08;;;;;;;30.05;5.57;;;11.20;99.90;;;;;;4884983;29;20466;-57
2023/02/03 12:37:04;;;;;;;37.97;7.43;;;11.00;99.90;;;;;;4915872;29;20040;-57
2023/02/03 12:39:32;;;;;;;28.08;5.32;;;11.00;99.90;;;;;;4915941;29;20059;-58
2023/02/03 12:42:31;;;;;;;25.98;5.25;;;10.90;99.90;;;;;;4915606;29;20054;-57
2023/02/03 12:45:19;;;;;;;31.27;6.32;;;10.80;99.90;;;;;;4915316;29;20087;-57
2023/02/03 12:47:57;;;;;;;32.15;6.43;;;10.80;99.90;;;;;;4901724;29;20088;-57
2023/02/03 12:50:31;;;;;;;32.00;6.75;;;10.80;99.90;;;;;;4915778;29;20051;-57
2023/02/03 12:53:23;;;;;;;34.58;6.47;;;10.80;99.90;;;;;;4915498;29;20060;-57
2023/02/03 12:56:12;;;;;;;33.17;6.18;;;10.70;99.90;;;;;;4915466;29;20056;-57
2023/02/03 12:59:16;;;;;;;30.77;6.35;;;10.80;99.90;;;;;;4915503;29;20511;-57
2023/02/03 13:01:51;;;;;;;29.85;5.65;;;10.70;99.90;;;;;;4840831;29;20069;-57
2023/02/03 13:04:40;;;;;;;29.95;5.28;;;10.60;99.90;;;;;;4830664;29;20125;-57
2023/02/03 13:07:26;;;;;;;35.65;7.28;;;10.50;99.90;;;;;;4944350;28;20471;-57